sensor_id;sensor_type;location;lat;lon;timestamp;P1;durP1;ratioP1;P2;durP2;ratioP2
53652;SDS011;39553;52.954;5.932;2023-07-24T00:00:00;9.82;;;5.28;;
53652;SDS011;39553;52.954;5.932;2023-07-24T00:02:26;12.60;;;5.30;;
53652;SDS011;39553;52.954;5.932;2023-07-24T00:04:51;11.70;;;4.93;;
53652;SDS011;39553;52.954;5.932;2023-07-24T00:07:17;12.90;;;5.32;;
53652;SDS011;39553;52.954;5.932;2023-07-24T00:09:43;9.65;;;5.60;;
53652;SDS011;39553;52.954;5.932;2023-07-24T00:12:08;16.60;;;6.38;;
53652;SDS011;39553;52.954;5.932;2023-07-24T00:14:34;12.63;;;5.97;;
53652;SDS011;39553;52.954;5.932;2023-07-24T00:17:00;8.73;;;5.32;;
53652;SDS011;39553;52.954;5.932;2023-07-24T00:19:26;12.77;;;5.80;;
53652;SDS011;39553;52.954;5.932;2023-07-24T00:21:51;12.05;;;5.40;;
53652;SDS011;39553;52.954;5.932;2023-07-24T00:24:17;13.45;;;5.95;;
53652;SDS011;39553;52.954;5.932;2023-07-24T00:26:43;10.00;;;5.65;;
53652;SDS011;39553;52.954;5.932;2023-07-24T00:29:09;14.98;;;6.72;;
53652;SDS011;39553;52.954;5.932;2023-07-24T00:31:34;11.27;;;5.47;;
53652;SDS011;39553;52.954;5.932;2023-07-24T00:34:00;11.60;;;5.75;;
53652;SDS011;39553;52.954;5.932;2023-07-24T00:36:26;13.70;;;6.22;;
53652;SDS011;39553;52.954;5.932;2023-07-24T00:38:52;17.10;;;6.03;;
53652;SDS011;39553;52.954;5.932;2023-07-24T00:41:18;11.40;;;6.30;;
53652;SDS011;39553;52.954;5.932;2023-07-24T00:43:43;17.27;;;6.80;;
53652;SDS011;39553;52.954;5.932;2023-07-24T00:46:09;12.35;;;6.50;;
53652;SDS011;39553;52.954;5.932;2023-07-24T00:48:36;11.60;;;7.60;;
53652;SDS011;39553;52.954;5.932;2023-07-24T00:51:03;13.18;;;6.57;;
53652;SDS011;39553;52.954;5.932;2023-07-24T00:53:30;11.15;;;6.78;;
53652;SDS011;39553;52.954;5.932;2023-07-24T00:55:55;12.55;;;6.80;;
53652;SDS011;39553;52.954;5.932;2023-07-24T00:58:21;17.48;;;6.97;;
53652;SDS011;39553;52.954;5.932;2023-07-24T01:00:47;13.15;;;7.88;;
53652;SDS011;39553;52.954;5.932;2023-07-24T01:03:13;13.80;;;8.75;;
53652;SDS011;39553;52.954;5.932;2023-07-24T01:05:39;15.77;;;8.75;;
53652;SDS011;39553;52.954;5.932;2023-07-24T01:08:06;15.10;;;8.85;;
53652;SDS011;39553;52.954;5.932;2023-07-24T01:10:32;16.80;;;8.57;;
53652;SDS011;39553;52.954;5.932;2023-07-24T01:13:09;18.23;;;9.82;;
53652;SDS011;39553;52.954;5.932;2023-07-24T01:16:03;13.75;;;9.65;;
53652;SDS011;39553;52.954;5.932;2023-07-24T01:18:30;13.77;;;9.48;;
53652;SDS011;39553;52.954;5.932;2023-07-24T01:20:58;16.55;;;10.95;;
53652;SDS011;39553;52.954;5.932;2023-07-24T01:23:37;16.30;;;10.80;;
53652;SDS011;39553;52.954;5.932;2023-07-24T01:26:17;14.93;;;10.90;;
53652;SDS011;39553;52.954;5.932;2023-07-24T01:28:44;16.73;;;10.43;;
53652;SDS011;39553;52.954;5.932;2023-07-24T01:31:11;16.83;;;10.98;;
53652;SDS011;39553;52.954;5.932;2023-07-24T01:33:37;22.17;;;11.13;;
53652;SDS011;39553;52.954;5.932;2023-07-24T01:36:04;16.77;;;10.23;;
53652;SDS011;39553;52.954;5.932;2023-07-24T01:38:31;19.73;;;9.40;;
53652;SDS011;39553;52.954;5.932;2023-07-24T01:40:59;15.38;;;8.55;;
53652;SDS011;39553;52.954;5.932;2023-07-24T01:43:26;16.98;;;8.43;;
53652;SDS011;39553;52.954;5.932;2023-07-24T01:45:53;18.52;;;7.75;;
53652;SDS011;39553;52.954;5.932;2023-07-24T01:48:19;13.05;;;7.10;;
53652;SDS011;39553;52.954;5.932;2023-07-24T01:50:45;14.10;;;6.85;;
53652;SDS011;39553;52.954;5.932;2023-07-24T01:53:10;14.85;;;6.68;;
53652;SDS011;39553;52.954;5.932;2023-07-24T01:55:36;14.85;;;7.03;;
53652;SDS011;39553;52.954;5.932;2023-07-24T01:58:02;16.02;;;6.68;;
53652;SDS011;39553;52.954;5.932;2023-07-24T02:00:28;13.18;;;7.43;;
53652;SDS011;39553;52.954;5.932;2023-07-24T02:02:54;11.02;;;7.00;;
53652;SDS011;39553;52.954;5.932;2023-07-24T02:05:20;14.00;;;7.20;;
53652;SDS011;39553;52.954;5.932;2023-07-24T02:07:46;11.95;;;6.85;;
53652;SDS011;39553;52.954;5.932;2023-07-24T02:10:11;15.02;;;6.97;;
53652;SDS011;39553;52.954;5.932;2023-07-24T02:12:37;13.18;;;6.88;;
53652;SDS011;39553;52.954;5.932;2023-07-24T02:15:03;12.48;;;6.88;;
53652;SDS011;39553;52.954;5.932;2023-07-24T02:17:29;15.10;;;7.47;;
53652;SDS011;39553;52.954;5.932;2023-07-24T02:19:55;16.00;;;7.55;;
53652;SDS011;39553;52.954;5.932;2023-07-24T02:22:21;12.15;;;6.55;;
53652;SDS011;39553;52.954;5.932;2023-07-24T02:24:46;13.05;;;6.50;;
53652;SDS011;39553;52.954;5.932;2023-07-24T02:27:12;9.43;;;6.22;;
53652;SDS011;39553;52.954;5.932;2023-07-24T02:29:49;14.48;;;6.65;;
53652;SDS011;39553;52.954;5.932;2023-07-24T02:32:14;13.45;;;6.45;;
53652;SDS011;39553;52.954;5.932;2023-07-24T02:34:40;13.35;;;5.95;;
53652;SDS011;39553;52.954;5.932;2023-07-24T02:37:06;13.90;;;6.45;;
53652;SDS011;39553;52.954;5.932;2023-07-24T02:39:31;11.80;;;6.88;;
53652;SDS011;39553;52.954;5.932;2023-07-24T02:41:57;14.10;;;6.30;;
53652;SDS011;39553;52.954;5.932;2023-07-24T02:44:23;17.05;;;7.35;;
53652;SDS011;39553;52.954;5.932;2023-07-24T02:46:48;10.70;;;6.13;;
53652;SDS011;39553;52.954;5.932;2023-07-24T02:49:14;12.60;;;5.50;;
53652;SDS011;39553;52.954;5.932;2023-07-24T02:51:40;14.32;;;6.25;;
53652;SDS011;39553;52.954;5.932;2023-07-24T02:54:05;11.15;;;6.03;;
53652;SDS011;39553;52.954;5.932;2023-07-24T02:56:31;16.60;;;6.20;;
53652;SDS011;39553;52.954;5.932;2023-07-24T02:58:57;13.52;;;6.25;;
53652;SDS011;39553;52.954;5.932;2023-07-24T03:01:23;10.20;;;6.15;;
53652;SDS011;39553;52.954;5.932;2023-07-24T03:03:48;12.95;;;6.70;;
53652;SDS011;39553;52.954;5.932;2023-07-24T03:06:14;12.07;;;5.82;;
53652;SDS011;39553;52.954;5.932;2023-07-24T03:08:40;11.20;;;6.55;;
53652;SDS011;39553;52.954;5.932;2023-07-24T03:11:07;11.68;;;6.00;;
53652;SDS011;39553;52.954;5.932;2023-07-24T03:13:33;10.95;;;6.53;;
53652;SDS011;39553;52.954;5.932;2023-07-24T03:15:58;9.73;;;5.75;;
53652;SDS011;39553;52.954;5.932;2023-07-24T03:18:24;14.00;;;6.78;;
53652;SDS011;39553;52.954;5.932;2023-07-24T03:20:50;13.40;;;5.97;;
53652;SDS011;39553;52.954;5.932;2023-07-24T03:23:17;11.00;;;6.85;;
53652;SDS011;39553;52.954;5.932;2023-07-24T03:25:43;14.90;;;7.50;;
53652;SDS011;39553;52.954;5.932;2023-07-24T03:28:09;15.90;;;6.88;;
53652;SDS011;39553;52.954;5.932;2023-07-24T03:30:34;10.88;;;6.53;;
53652;SDS011;39553;52.954;5.932;2023-07-24T03:33:01;10.57;;;6.38;;
53652;SDS011;39553;52.954;5.932;2023-07-24T03:35:27;12.90;;;6.75;;
53652;SDS011;39553;52.954;5.932;2023-07-24T03:37:53;11.18;;;6.07;;
53652;SDS011;39553;52.954;5.932;2023-07-24T03:40:18;11.88;;;6.20;;
53652;SDS011;39553;52.954;5.932;2023-07-24T03:42:44;13.82;;;6.15;;
53652;SDS011;39553;52.954;5.932;2023-07-24T03:45:10;13.88;;;6.78;;
53652;SDS011;39553;52.954;5.932;2023-07-24T03:47:36;9.73;;;5.90;;
53652;SDS011;39553;52.954;5.932;2023-07-24T03:50:01;15.68;;;6.60;;
53652;SDS011;39553;52.954;5.932;2023-07-24T03:52:27;12.90;;;5.70;;
53652;SDS011;39553;52.954;5.932;2023-07-24T03:54:53;9.95;;;6.38;;
53652;SDS011;39553;52.954;5.932;2023-07-24T03:57:18;11.57;;;7.38;;
53652;SDS011;39553;52.954;5.932;2023-07-24T03:59:44;14.30;;;7.53;;
53652;SDS011;39553;52.954;5.932;2023-07-24T04:02:10;13.27;;;7.32;;
53652;SDS011;39553;52.954;5.932;2023-07-24T04:04:36;11.90;;;7.50;;
53652;SDS011;39553;52.954;5.932;2023-07-24T04:07:03;16.08;;;7.32;;
53652;SDS011;39553;52.954;5.932;2023-07-24T04:09:29;11.45;;;6.68;;
53652;SDS011;39553;52.954;5.932;2023-07-24T04:11:55;14.23;;;7.20;;
53652;SDS011;39553;52.954;5.932;2023-07-24T04:14:21;10.10;;;7.78;;
53652;SDS011;39553;52.954;5.932;2023-07-24T04:16:46;10.80;;;7.38;;
53652;SDS011;39553;52.954;5.932;2023-07-24T04:19:12;14.25;;;8.60;;
53652;SDS011;39553;52.954;5.932;2023-07-24T04:21:38;14.95;;;8.25;;
53652;SDS011;39553;52.954;5.932;2023-07-24T04:24:04;11.73;;;8.82;;
53652;SDS011;39553;52.954;5.932;2023-07-24T04:26:30;14.43;;;7.72;;
53652;SDS011;39553;52.954;5.932;2023-07-24T04:28:55;11.65;;;8.23;;
53652;SDS011;39553;52.954;5.932;2023-07-24T04:31:21;10.88;;;7.85;;
53652;SDS011;39553;52.954;5.932;2023-07-24T04:33:47;12.40;;;7.72;;
53652;SDS011;39553;52.954;5.932;2023-07-24T04:36:13;18.58;;;9.05;;
53652;SDS011;39553;52.954;5.932;2023-07-24T04:38:38;16.02;;;8.63;;
53652;SDS011;39553;52.954;5.932;2023-07-24T04:41:04;18.67;;;8.40;;
53652;SDS011;39553;52.954;5.932;2023-07-24T04:43:30;12.45;;;7.82;;
53652;SDS011;39553;52.954;5.932;2023-07-24T04:45:56;14.30;;;8.32;;
53652;SDS011;39553;52.954;5.932;2023-07-24T04:48:21;14.60;;;8.15;;
53652;SDS011;39553;52.954;5.932;2023-07-24T04:50:52;11.63;;;7.65;;
53652;SDS011;39553;52.954;5.932;2023-07-24T04:53:21;12.50;;;7.97;;
53652;SDS011;39553;52.954;5.932;2023-07-24T04:55:47;9.50;;;6.75;;
53652;SDS011;39553;52.954;5.932;2023-07-24T04:58:13;12.48;;;8.52;;
53652;SDS011;39553;52.954;5.932;2023-07-24T05:00:39;12.07;;;8.00;;
53652;SDS011;39553;52.954;5.932;2023-07-24T05:03:05;9.82;;;6.78;;
53652;SDS011;39553;52.954;5.932;2023-07-24T05:05:33;11.80;;;7.15;;
53652;SDS011;39553;52.954;5.932;2023-07-24T05:07:58;11.25;;;6.72;;
53652;SDS011;39553;52.954;5.932;2023-07-24T05:10:24;16.02;;;7.07;;
53652;SDS011;39553;52.954;5.932;2023-07-24T05:12:50;15.35;;;6.40;;
53652;SDS011;39553;52.954;5.932;2023-07-24T05:15:16;21.85;;;6.13;;
53652;SDS011;39553;52.954;5.932;2023-07-24T05:17:42;13.98;;;6.60;;
53652;SDS011;39553;52.954;5.932;2023-07-24T05:20:09;13.60;;;7.20;;
53652;SDS011;39553;52.954;5.932;2023-07-24T05:22:35;13.63;;;6.20;;
53652;SDS011;39553;52.954;5.932;2023-07-24T05:25:00;12.98;;;7.05;;
53652;SDS011;39553;52.954;5.932;2023-07-24T05:27:26;14.80;;;6.47;;
53652;SDS011;39553;52.954;5.932;2023-07-24T05:29:52;10.23;;;6.40;;
53652;SDS011;39553;52.954;5.932;2023-07-24T05:32:18;13.88;;;6.88;;
53652;SDS011;39553;52.954;5.932;2023-07-24T05:34:43;17.88;;;6.95;;
53652;SDS011;39553;52.954;5.932;2023-07-24T05:37:09;13.40;;;7.45;;
53652;SDS011;39553;52.954;5.932;2023-07-24T05:39:35;12.32;;;6.43;;
53652;SDS011;39553;52.954;5.932;2023-07-24T05:42:01;11.68;;;7.13;;
53652;SDS011;39553;52.954;5.932;2023-07-24T05:44:27;13.75;;;6.80;;
53652;SDS011;39553;52.954;5.932;2023-07-24T05:46:53;13.40;;;7.10;;
53652;SDS011;39553;52.954;5.932;2023-07-24T05:49:19;13.55;;;7.60;;
53652;SDS011;39553;52.954;5.932;2023-07-24T05:51:44;14.35;;;7.10;;
53652;SDS011;39553;52.954;5.932;2023-07-24T05:54:10;13.30;;;7.50;;
53652;SDS011;39553;52.954;5.932;2023-07-24T05:56:36;15.15;;;8.13;;
53652;SDS011;39553;52.954;5.932;2023-07-24T05:59:01;15.90;;;7.60;;
53652;SDS011;39553;52.954;5.932;2023-07-24T06:01:27;15.80;;;7.90;;
53652;SDS011;39553;52.954;5.932;2023-07-24T06:03:53;14.23;;;7.10;;
53652;SDS011;39553;52.954;5.932;2023-07-24T06:06:18;13.10;;;7.45;;
53652;SDS011;39553;52.954;5.932;2023-07-24T06:08:44;12.63;;;6.95;;
53652;SDS011;39553;52.954;5.932;2023-07-24T06:11:12;15.13;;;7.85;;
53652;SDS011;39553;52.954;5.932;2023-07-24T06:13:38;13.30;;;7.57;;
53652;SDS011;39553;52.954;5.932;2023-07-24T06:16:03;14.40;;;7.55;;
53652;SDS011;39553;52.954;5.932;2023-07-24T06:18:29;18.50;;;7.90;;
53652;SDS011;39553;52.954;5.932;2023-07-24T06:20:55;12.00;;;6.85;;
53652;SDS011;39553;52.954;5.932;2023-07-24T06:23:21;17.80;;;7.40;;
53652;SDS011;39553;52.954;5.932;2023-07-24T06:25:46;16.35;;;6.78;;
53652;SDS011;39553;52.954;5.932;2023-07-24T06:28:12;11.13;;;7.25;;
53652;SDS011;39553;52.954;5.932;2023-07-24T06:30:38;14.23;;;7.97;;
53652;SDS011;39553;52.954;5.932;2023-07-24T06:33:04;16.20;;;7.82;;
53652;SDS011;39553;52.954;5.932;2023-07-24T06:35:30;12.77;;;7.68;;
53652;SDS011;39553;52.954;5.932;2023-07-24T06:37:56;20.38;;;8.32;;
53652;SDS011;39553;52.954;5.932;2023-07-24T06:40:22;16.17;;;8.27;;
53652;SDS011;39553;52.954;5.932;2023-07-24T06:42:47;16.63;;;7.18;;
53652;SDS011;39553;52.954;5.932;2023-07-24T06:45:13;19.02;;;7.38;;
53652;SDS011;39553;52.954;5.932;2023-07-24T06:47:39;24.25;;;8.98;;
53652;SDS011;39553;52.954;5.932;2023-07-24T06:50:05;18.98;;;7.90;;
53652;SDS011;39553;52.954;5.932;2023-07-24T06:52:32;23.13;;;8.95;;
53652;SDS011;39553;52.954;5.932;2023-07-24T06:54:58;20.67;;;8.02;;
53652;SDS011;39553;52.954;5.932;2023-07-24T06:57:24;20.55;;;9.70;;
53652;SDS011;39553;52.954;5.932;2023-07-24T06:59:51;16.27;;;8.45;;
53652;SDS011;39553;52.954;5.932;2023-07-24T07:02:17;25.33;;;9.35;;
53652;SDS011;39553;52.954;5.932;2023-07-24T07:04:43;19.25;;;8.80;;
53652;SDS011;39553;52.954;5.932;2023-07-24T07:07:08;19.50;;;8.57;;
53652;SDS011;39553;52.954;5.932;2023-07-24T07:09:35;20.13;;;9.10;;
53652;SDS011;39553;52.954;5.932;2023-07-24T07:12:01;19.58;;;8.63;;
53652;SDS011;39553;52.954;5.932;2023-07-24T07:14:26;19.63;;;8.90;;
53652;SDS011;39553;52.954;5.932;2023-07-24T07:16:52;17.65;;;9.73;;
53652;SDS011;39553;52.954;5.932;2023-07-24T07:19:18;17.52;;;8.75;;
53652;SDS011;39553;52.954;5.932;2023-07-24T07:21:44;13.40;;;8.05;;
53652;SDS011;39553;52.954;5.932;2023-07-24T07:24:10;19.17;;;8.25;;
53652;SDS011;39553;52.954;5.932;2023-07-24T07:26:35;12.02;;;7.43;;
53652;SDS011;39553;52.954;5.932;2023-07-24T07:29:01;15.07;;;8.05;;
53652;SDS011;39553;52.954;5.932;2023-07-24T07:31:27;22.88;;;8.73;;
53652;SDS011;39553;52.954;5.932;2023-07-24T07:33:52;20.80;;;8.65;;
53652;SDS011;39553;52.954;5.932;2023-07-24T07:36:18;23.55;;;8.63;;
53652;SDS011;39553;52.954;5.932;2023-07-24T07:38:44;17.25;;;8.88;;
53652;SDS011;39553;52.954;5.932;2023-07-24T07:41:10;17.00;;;8.30;;
53652;SDS011;39553;52.954;5.932;2023-07-24T07:43:35;22.15;;;9.25;;
53652;SDS011;39553;52.954;5.932;2023-07-24T07:46:02;18.30;;;8.00;;
53652;SDS011;39553;52.954;5.932;2023-07-24T07:48:28;18.65;;;9.90;;
53652;SDS011;39553;52.954;5.932;2023-07-24T07:50:54;19.10;;;8.68;;
53652;SDS011;39553;52.954;5.932;2023-07-24T07:53:20;20.15;;;8.60;;
53652;SDS011;39553;52.954;5.932;2023-07-24T07:55:46;15.13;;;8.43;;
53652;SDS011;39553;52.954;5.932;2023-07-24T07:58:11;18.02;;;8.35;;
53652;SDS011;39553;52.954;5.932;2023-07-24T08:00:37;23.98;;;8.68;;
53652;SDS011;39553;52.954;5.932;2023-07-24T08:03:04;16.60;;;8.77;;
53652;SDS011;39553;52.954;5.932;2023-07-24T08:05:30;13.68;;;7.70;;
53652;SDS011;39553;52.954;5.932;2023-07-24T08:07:57;19.23;;;8.20;;
53652;SDS011;39553;52.954;5.932;2023-07-24T08:10:23;14.73;;;8.00;;
53652;SDS011;39553;52.954;5.932;2023-07-24T08:12:49;14.25;;;7.78;;
53652;SDS011;39553;52.954;5.932;2023-07-24T08:15:14;15.00;;;7.68;;
53652;SDS011;39553;52.954;5.932;2023-07-24T08:17:40;13.75;;;7.38;;
53652;SDS011;39553;52.954;5.932;2023-07-24T08:20:06;14.82;;;7.53;;
53652;SDS011;39553;52.954;5.932;2023-07-24T08:22:32;20.63;;;8.32;;
53652;SDS011;39553;52.954;5.932;2023-07-24T08:24:58;17.45;;;8.20;;
53652;SDS011;39553;52.954;5.932;2023-07-24T08:27:24;12.63;;;7.60;;
53652;SDS011;39553;52.954;5.932;2023-07-24T08:29:52;16.92;;;7.80;;
53652;SDS011;39553;52.954;5.932;2023-07-24T08:32:19;22.45;;;7.57;;
53652;SDS011;39553;52.954;5.932;2023-07-24T08:34:45;15.15;;;7.45;;
53652;SDS011;39553;52.954;5.932;2023-07-24T08:37:13;17.92;;;8.27;;
53652;SDS011;39553;52.954;5.932;2023-07-24T08:39:39;14.38;;;7.53;;
53652;SDS011;39553;52.954;5.932;2023-07-24T08:42:12;14.18;;;7.22;;
53652;SDS011;39553;52.954;5.932;2023-07-24T08:44:38;14.40;;;7.45;;
53652;SDS011;39553;52.954;5.932;2023-07-24T08:47:05;15.77;;;7.97;;
53652;SDS011;39553;52.954;5.932;2023-07-24T08:49:34;13.82;;;7.78;;
53652;SDS011;39553;52.954;5.932;2023-07-24T08:52:02;17.10;;;7.10;;
53652;SDS011;39553;52.954;5.932;2023-07-24T08:54:29;17.38;;;7.75;;
53652;SDS011;39553;52.954;5.932;2023-07-24T08:56:56;16.58;;;7.45;;
53652;SDS011;39553;52.954;5.932;2023-07-24T08:59:22;13.30;;;7.20;;
53652;SDS011;39553;52.954;5.932;2023-07-24T09:01:47;14.07;;;7.38;;
53652;SDS011;39553;52.954;5.932;2023-07-24T09:04:13;10.30;;;7.10;;
53652;SDS011;39553;52.954;5.932;2023-07-24T09:06:39;18.45;;;7.35;;
53652;SDS011;39553;52.954;5.932;2023-07-24T09:09:13;14.13;;;7.20;;
53652;SDS011;39553;52.954;5.932;2023-07-24T09:11:46;10.83;;;7.17;;
53652;SDS011;39553;52.954;5.932;2023-07-24T09:14:27;14.00;;;7.90;;
53652;SDS011;39553;52.954;5.932;2023-07-24T09:17:09;15.88;;;7.45;;
53652;SDS011;39553;52.954;5.932;2023-07-24T09:19:36;15.30;;;7.65;;
53652;SDS011;39553;52.954;5.932;2023-07-24T09:22:10;15.50;;;7.43;;
53652;SDS011;39553;52.954;5.932;2023-07-24T09:24:49;15.93;;;7.93;;
53652;SDS011;39553;52.954;5.932;2023-07-24T09:27:19;12.07;;;7.18;;
53652;SDS011;39553;52.954;5.932;2023-07-24T09:29:46;16.10;;;7.57;;
53652;SDS011;39553;52.954;5.932;2023-07-24T09:32:25;14.40;;;6.30;;
53652;SDS011;39553;52.954;5.932;2023-07-24T09:34:51;11.48;;;6.60;;
53652;SDS011;39553;52.954;5.932;2023-07-24T09:37:27;12.73;;;6.72;;
53652;SDS011;39553;52.954;5.932;2023-07-24T09:39:58;14.02;;;5.53;;
53652;SDS011;39553;52.954;5.932;2023-07-24T09:42:30;14.48;;;6.70;;
53652;SDS011;39553;52.954;5.932;2023-07-24T09:44:57;11.77;;;7.38;;
53652;SDS011;39553;52.954;5.932;2023-07-24T09:47:23;14.98;;;6.55;;
53652;SDS011;39553;52.954;5.932;2023-07-24T09:49:49;13.48;;;5.88;;
53652;SDS011;39553;52.954;5.932;2023-07-24T09:52:17;11.20;;;7.38;;
53652;SDS011;39553;52.954;5.932;2023-07-24T09:54:55;11.55;;;7.00;;
53652;SDS011;39553;52.954;5.932;2023-07-24T09:57:34;14.45;;;6.75;;
53652;SDS011;39553;52.954;5.932;2023-07-24T10:00:01;9.88;;;5.72;;
53652;SDS011;39553;52.954;5.932;2023-07-24T10:02:27;15.40;;;6.55;;
53652;SDS011;39553;52.954;5.932;2023-07-24T10:04:54;13.30;;;6.57;;
53652;SDS011;39553;52.954;5.932;2023-07-24T10:07:21;11.07;;;6.65;;
53652;SDS011;39553;52.954;5.932;2023-07-24T10:09:49;9.35;;;6.13;;
53652;SDS011;39553;52.954;5.932;2023-07-24T10:12:16;12.45;;;6.65;;
53652;SDS011;39553;52.954;5.932;2023-07-24T10:14:46;11.18;;;5.72;;
53652;SDS011;39553;52.954;5.932;2023-07-24T10:17:13;10.93;;;6.60;;
53652;SDS011;39553;52.954;5.932;2023-07-24T10:19:39;10.50;;;6.03;;
53652;SDS011;39553;52.954;5.932;2023-07-24T10:22:09;7.90;;;5.43;;
53652;SDS011;39553;52.954;5.932;2023-07-24T10:24:42;14.57;;;6.60;;
53652;SDS011;39553;52.954;5.932;2023-07-24T10:27:08;11.05;;;5.53;;
53652;SDS011;39553;52.954;5.932;2023-07-24T10:29:34;11.80;;;6.28;;
53652;SDS011;39553;52.954;5.932;2023-07-24T10:32:02;7.90;;;6.20;;
53652;SDS011;39553;52.954;5.932;2023-07-24T10:34:40;11.88;;;5.78;;
53652;SDS011;39553;52.954;5.932;2023-07-24T10:37:09;10.57;;;5.38;;
53652;SDS011;39553;52.954;5.932;2023-07-24T10:39:38;10.48;;;5.80;;
53652;SDS011;39553;52.954;5.932;2023-07-24T10:42:06;13.00;;;5.45;;
53652;SDS011;39553;52.954;5.932;2023-07-24T10:44:34;8.73;;;5.05;;
53652;SDS011;39553;52.954;5.932;2023-07-24T10:47:00;10.20;;;6.43;;
53652;SDS011;39553;52.954;5.932;2023-07-24T10:49:26;12.65;;;6.25;;
53652;SDS011;39553;52.954;5.932;2023-07-24T10:51:58;10.82;;;6.03;;
53652;SDS011;39553;52.954;5.932;2023-07-24T10:54:24;11.68;;;5.60;;
53652;SDS011;39553;52.954;5.932;2023-07-24T10:56:57;9.95;;;5.43;;
53652;SDS011;39553;52.954;5.932;2023-07-24T11:02:00;8.50;;;5.20;;
53652;SDS011;39553;52.954;5.932;2023-07-24T11:04:29;11.70;;;5.78;;
53652;SDS011;39553;52.954;5.932;2023-07-24T11:06:55;8.02;;;5.50;;
53652;SDS011;39553;52.954;5.932;2023-07-24T11:09:22;10.43;;;6.25;;
53652;SDS011;39553;52.954;5.932;2023-07-24T11:11:58;8.90;;;4.88;;
53652;SDS011;39553;52.954;5.932;2023-07-24T11:14:24;6.18;;;5.00;;
53652;SDS011;39553;52.954;5.932;2023-07-24T11:16:50;12.13;;;5.90;;
53652;SDS011;39553;52.954;5.932;2023-07-24T11:19:23;8.32;;;5.28;;
53652;SDS011;39553;52.954;5.932;2023-07-24T11:21:49;8.23;;;4.88;;
53652;SDS011;39553;52.954;5.932;2023-07-24T11:24:17;7.57;;;4.72;;
53652;SDS011;39553;52.954;5.932;2023-07-24T11:26:43;7.20;;;4.53;;
53652;SDS011;39553;52.954;5.932;2023-07-24T11:29:12;8.23;;;4.95;;
53652;SDS011;39553;52.954;5.932;2023-07-24T11:31:38;9.95;;;6.30;;
53652;SDS011;39553;52.954;5.932;2023-07-24T11:34:04;7.88;;;5.35;;
53652;SDS011;39553;52.954;5.932;2023-07-24T11:36:30;50.35;;;9.95;;
53652;SDS011;39553;52.954;5.932;2023-07-24T11:38:57;16.77;;;7.32;;
53652;SDS011;39553;52.954;5.932;2023-07-24T11:41:23;11.30;;;7.70;;
53652;SDS011;39553;52.954;5.932;2023-07-24T11:43:51;15.68;;;8.48;;
53652;SDS011;39553;52.954;5.932;2023-07-24T11:46:26;13.30;;;9.15;;
53652;SDS011;39553;52.954;5.932;2023-07-24T11:48:53;13.30;;;8.05;;
53652;SDS011;39553;52.954;5.932;2023-07-24T11:51:22;12.02;;;7.93;;
53652;SDS011;39553;52.954;5.932;2023-07-24T11:53:49;12.40;;;7.88;;
53652;SDS011;39553;52.954;5.932;2023-07-24T11:56:16;11.32;;;8.07;;
53652;SDS011;39553;52.954;5.932;2023-07-24T11:58:42;13.02;;;9.45;;
53652;SDS011;39553;52.954;5.932;2023-07-24T12:01:08;14.82;;;9.23;;
53652;SDS011;39553;52.954;5.932;2023-07-24T12:03:35;14.93;;;9.52;;
53652;SDS011;39553;52.954;5.932;2023-07-24T12:06:01;22.80;;;11.93;;
53652;SDS011;39553;52.954;5.932;2023-07-24T12:08:34;22.20;;;12.13;;
53652;SDS011;39553;52.954;5.932;2023-07-24T12:11:01;19.10;;;11.68;;
53652;SDS011;39553;52.954;5.932;2023-07-24T12:13:27;18.45;;;11.85;;
53652;SDS011;39553;52.954;5.932;2023-07-24T12:15:54;18.35;;;11.70;;
53652;SDS011;39553;52.954;5.932;2023-07-24T12:18:20;12.65;;;8.93;;
53652;SDS011;39553;52.954;5.932;2023-07-24T12:20:45;12.00;;;8.90;;
53652;SDS011;39553;52.954;5.932;2023-07-24T12:23:12;13.18;;;9.07;;
53652;SDS011;39553;52.954;5.932;2023-07-24T12:25:38;15.93;;;9.45;;
53652;SDS011;39553;52.954;5.932;2023-07-24T12:28:04;11.90;;;8.20;;
53652;SDS011;39553;52.954;5.932;2023-07-24T12:30:29;8.52;;;7.43;;
53652;SDS011;39553;52.954;5.932;2023-07-24T12:32:55;14.75;;;9.07;;
53652;SDS011;39553;52.954;5.932;2023-07-24T12:35:21;10.43;;;7.47;;
53652;SDS011;39553;52.954;5.932;2023-07-24T12:37:46;10.07;;;8.48;;
53652;SDS011;39553;52.954;5.932;2023-07-24T12:40:12;10.75;;;7.38;;
53652;SDS011;39553;52.954;5.932;2023-07-24T12:42:38;7.15;;;5.18;;
53652;SDS011;39553;52.954;5.932;2023-07-24T12:45:04;4.28;;;3.58;;
53652;SDS011;39553;52.954;5.932;2023-07-24T12:47:33;4.90;;;3.55;;
53652;SDS011;39553;52.954;5.932;2023-07-24T12:49:59;3.60;;;2.90;;
53652;SDS011;39553;52.954;5.932;2023-07-24T12:52:26;5.47;;;3.10;;
53652;SDS011;39553;52.954;5.932;2023-07-24T12:54:51;3.63;;;2.30;;
53652;SDS011;39553;52.954;5.932;2023-07-24T12:57:18;4.22;;;2.40;;
53652;SDS011;39553;52.954;5.932;2023-07-24T12:59:44;3.03;;;1.98;;
53652;SDS011;39553;52.954;5.932;2023-07-24T13:02:10;3.30;;;1.90;;
53652;SDS011;39553;52.954;5.932;2023-07-24T13:04:35;3.35;;;2.13;;
53652;SDS011;39553;52.954;5.932;2023-07-24T13:07:01;2.75;;;1.80;;
53652;SDS011;39553;52.954;5.932;2023-07-24T13:09:29;1.90;;;1.60;;
53652;SDS011;39553;52.954;5.932;2023-07-24T13:11:55;3.70;;;2.08;;
53652;SDS011;39553;52.954;5.932;2023-07-24T13:14:20;4.50;;;2.33;;
53652;SDS011;39553;52.954;5.932;2023-07-24T13:16:48;5.63;;;2.90;;
53652;SDS011;39553;52.954;5.932;2023-07-24T13:19:16;4.72;;;3.25;;
53652;SDS011;39553;52.954;5.932;2023-07-24T13:21:42;5.63;;;2.50;;
53652;SDS011;39553;52.954;5.932;2023-07-24T13:24:08;3.22;;;2.42;;
53652;SDS011;39553;52.954;5.932;2023-07-24T13:26:35;6.93;;;3.10;;
53652;SDS011;39553;52.954;5.932;2023-07-24T13:29:01;8.90;;;3.00;;
53652;SDS011;39553;52.954;5.932;2023-07-24T13:31:28;5.78;;;2.85;;
53652;SDS011;39553;52.954;5.932;2023-07-24T13:33:55;4.95;;;2.05;;
53652;SDS011;39553;52.954;5.932;2023-07-24T13:36:21;6.75;;;2.28;;
53652;SDS011;39553;52.954;5.932;2023-07-24T13:38:47;7.07;;;2.20;;
53652;SDS011;39553;52.954;5.932;2023-07-24T13:41:13;4.75;;;2.10;;
53652;SDS011;39553;52.954;5.932;2023-07-24T13:43:39;6.00;;;2.00;;
53652;SDS011;39553;52.954;5.932;2023-07-24T13:46:05;3.35;;;1.90;;
53652;SDS011;39553;52.954;5.932;2023-07-24T13:48:33;6.20;;;1.90;;
53652;SDS011;39553;52.954;5.932;2023-07-24T13:50:59;5.57;;;1.90;;
53652;SDS011;39553;52.954;5.932;2023-07-24T13:53:24;4.72;;;1.98;;
53652;SDS011;39553;52.954;5.932;2023-07-24T13:55:50;4.85;;;1.85;;
53652;SDS011;39553;52.954;5.932;2023-07-24T13:58:16;4.05;;;1.92;;
53652;SDS011;39553;52.954;5.932;2023-07-24T14:00:42;9.18;;;2.03;;
53652;SDS011;39553;52.954;5.932;2023-07-24T14:03:08;5.85;;;2.13;;
53652;SDS011;39553;52.954;5.932;2023-07-24T14:05:34;3.00;;;1.63;;
53652;SDS011;39553;52.954;5.932;2023-07-24T14:08:03;8.02;;;2.00;;
53652;SDS011;39553;52.954;5.932;2023-07-24T14:10:29;5.55;;;2.00;;
53652;SDS011;39553;52.954;5.932;2023-07-24T14:12:55;4.63;;;1.80;;
53652;SDS011;39553;52.954;5.932;2023-07-24T14:15:21;4.63;;;1.80;;
53652;SDS011;39553;52.954;5.932;2023-07-24T14:17:47;7.22;;;2.13;;
53652;SDS011;39553;52.954;5.932;2023-07-24T14:20:13;5.30;;;1.85;;
53652;SDS011;39553;52.954;5.932;2023-07-24T14:22:38;8.85;;;2.03;;
53652;SDS011;39553;52.954;5.932;2023-07-24T14:25:04;3.08;;;1.55;;
53652;SDS011;39553;52.954;5.932;2023-07-24T14:27:33;3.30;;;1.83;;
53652;SDS011;39553;52.954;5.932;2023-07-24T14:29:59;4.30;;;2.10;;
53652;SDS011;39553;52.954;5.932;2023-07-24T14:32:24;2.75;;;1.60;;
53652;SDS011;39553;52.954;5.932;2023-07-24T14:34:51;6.70;;;1.77;;